createdAt,value
2023-05-13T00:00:06.322Z,0.00
2023-05-13T00:01:06.327Z,0.00
2023-05-13T00:02:06.326Z,0.00
2023-05-13T00:03:06.459Z,0.00
2023-05-13T00:04:06.323Z,0.00
2023-05-13T00:05:06.336Z,0.00
2023-05-13T00:06:06.431Z,0.00
2023-05-13T00:07:06.333Z,0.00
2023-05-13T00:08:06.331Z,0.00
2023-05-13T00:09:06.339Z,0.00
2023-05-13T00:10:06.334Z,0.00
2023-05-13T00:11:06.344Z,0.00
2023-05-13T00:12:06.331Z,0.00
2023-05-13T00:13:06.349Z,0.00
2023-05-13T00:14:06.345Z,0.00
2023-05-13T00:15:06.345Z,0.00
2023-05-13T00:16:06.369Z,0.00
2023-05-13T00:17:06.351Z,0.00
2023-05-13T00:18:06.373Z,0.00
2023-05-13T00:19:06.451Z,0.00
2023-05-13T00:20:06.335Z,0.00
2023-05-13T00:21:06.346Z,0.00
2023-05-13T00:22:06.380Z,0.00
2023-05-13T00:23:06.350Z,0.00
2023-05-13T00:24:06.344Z,0.00
2023-05-13T00:25:06.350Z,0.00
2023-05-13T00:26:06.361Z,0.00
2023-05-13T00:27:06.380Z,0.00
2023-05-13T00:28:06.345Z,0.00
2023-05-13T00:29:06.350Z,0.00
2023-05-13T00:30:06.345Z,0.00
2023-05-13T00:31:06.403Z,0.00
2023-05-13T00:32:06.383Z,0.00
2023-05-13T00:33:06.392Z,0.00
2023-05-13T00:34:06.347Z,0.00
2023-05-13T00:35:06.353Z,0.00
2023-05-13T00:36:06.369Z,0.00
2023-05-13T00:37:06.677Z,0.00
2023-05-13T00:38:06.388Z,0.00
2023-05-13T00:39:06.354Z,0.00
2023-05-13T00:40:06.355Z,0.00
2023-05-13T00:41:06.365Z,0.00
2023-05-13T00:42:06.354Z,0.00
2023-05-13T00:43:06.379Z,0.00
2023-05-13T00:44:06.368Z,0.00
2023-05-13T00:45:06.356Z,0.00
2023-05-13T00:46:06.471Z,0.00
2023-05-13T00:47:06.364Z,0.00
2023-05-13T00:48:06.356Z,0.00
2023-05-13T00:49:06.364Z,0.00
2023-05-13T00:50:06.372Z,0.00
2023-05-13T00:51:06.370Z,0.00
2023-05-13T00:52:06.358Z,0.00
2023-05-13T00:53:06.361Z,0.00
2023-05-13T00:54:06.385Z,0.00
2023-05-13T00:55:06.374Z,0.00
2023-05-13T00:56:06.372Z,0.00
2023-05-13T00:57:06.365Z,0.00
2023-05-13T00:58:06.383Z,0.00
2023-05-13T00:59:06.380Z,0.00
2023-05-13T01:00:06.365Z,0.00
2023-05-13T01:01:06.398Z,0.00
2023-05-13T01:02:06.389Z,0.00
2023-05-13T01:03:06.566Z,0.00
2023-05-13T01:04:06.376Z,0.00
2023-05-13T01:05:06.372Z,0.00
2023-05-13T01:06:06.370Z,0.00
2023-05-13T01:07:06.379Z,0.00
2023-05-13T01:08:06.374Z,0.00
2023-05-13T01:09:06.375Z,0.00
2023-05-13T01:10:06.468Z,0.00
2023-05-13T01:11:06.371Z,0.00
2023-05-13T01:12:06.369Z,0.00
2023-05-13T01:13:06.379Z,0.00
2023-05-13T01:14:06.371Z,0.00
2023-05-13T01:15:06.383Z,0.00
2023-05-13T01:16:06.429Z,0.00
2023-05-13T01:17:06.415Z,0.00
2023-05-13T01:18:06.491Z,0.00
2023-05-13T01:19:06.420Z,0.00
2023-05-13T01:20:06.376Z,0.00
2023-05-13T01:21:06.385Z,0.00
2023-05-13T01:22:06.372Z,0.00
2023-05-13T01:23:06.383Z,0.00
2023-05-13T01:24:06.429Z,0.00
2023-05-13T01:25:06.384Z,0.00
2023-05-13T01:26:06.400Z,0.00
2023-05-13T01:27:06.386Z,0.00
2023-05-13T01:28:06.380Z,0.00
2023-05-13T01:29:06.397Z,0.00
2023-05-13T01:30:06.374Z,0.00
2023-05-13T01:31:06.450Z,0.00
2023-05-13T01:32:06.380Z,0.00
2023-05-13T01:33:06.415Z,0.00
2023-05-13T01:34:06.400Z,0.00
2023-05-13T01:35:06.395Z,0.00
2023-05-13T01:36:06.381Z,0.00
2023-05-13T01:37:06.388Z,0.00
2023-05-13T01:38:06.390Z,0.00
2023-05-13T01:39:06.390Z,0.00
2023-05-13T01:40:17.032Z,0.00
2023-05-13T01:41:06.390Z,0.00
2023-05-13T01:42:06.409Z,0.00
2023-05-13T01:43:06.387Z,0.00
2023-05-13T01:44:06.385Z,0.00
2023-05-13T01:45:06.395Z,0.00
2023-05-13T01:46:06.420Z,0.00
2023-05-13T01:47:06.397Z,0.00
2023-05-13T01:48:06.526Z,0.00
2023-05-13T01:49:06.393Z,0.00
2023-05-13T01:50:06.391Z,0.00
2023-05-13T01:51:06.394Z,0.00
2023-05-13T01:52:06.392Z,0.00
2023-05-13T01:53:06.390Z,0.00
2023-05-13T01:54:06.718Z,0.00
2023-05-13T01:55:06.394Z,0.00
2023-05-13T01:56:06.392Z,0.00
2023-05-13T01:57:06.427Z,0.00
2023-05-13T01:58:06.417Z,0.00
2023-05-13T01:59:06.405Z,0.00
2023-05-13T02:00:06.393Z,0.00
2023-05-13T02:01:06.402Z,0.00
2023-05-13T02:02:06.456Z,0.00
2023-05-13T02:03:06.477Z,0.00
2023-05-13T02:04:06.615Z,0.00
2023-05-13T02:05:06.402Z,0.00
2023-05-13T02:06:06.398Z,0.00
2023-05-13T02:07:06.415Z,0.00
2023-05-13T02:08:06.399Z,0.00
2023-05-13T02:09:06.402Z,0.00
2023-05-13T02:10:06.418Z,0.00
2023-05-13T02:11:06.404Z,0.00
2023-05-13T02:12:06.406Z,0.00
2023-05-13T02:13:06.405Z,0.00
2023-05-13T02:14:06.423Z,0.00
2023-05-13T02:15:06.430Z,0.00
2023-05-13T02:16:06.442Z,0.00
2023-05-13T02:17:06.405Z,0.00
2023-05-13T02:18:06.453Z,0.00
2023-05-13T02:19:06.516Z,0.00
2023-05-13T02:20:06.409Z,0.00
2023-05-13T02:21:06.402Z,0.00
2023-05-13T02:22:06.414Z,0.00
2023-05-13T02:23:06.409Z,0.00
2023-05-13T02:24:06.746Z,0.00
2023-05-13T02:25:06.410Z,0.00
2023-05-13T02:26:06.422Z,0.00
2023-05-13T02:27:06.413Z,0.00
2023-05-13T02:28:06.410Z,0.00
2023-05-13T02:29:06.413Z,0.00
2023-05-13T02:30:06.457Z,0.00
2023-05-13T02:31:06.411Z,0.00
2023-05-13T02:32:06.506Z,4.00
2023-05-13T02:33:06.486Z,4.00
2023-05-13T02:34:06.418Z,4.00
2023-05-13T02:35:06.413Z,4.00
2023-05-13T02:36:06.421Z,0.00
2023-05-13T02:37:06.427Z,0.00
2023-05-13T02:38:06.431Z,0.00
2023-05-13T02:39:06.411Z,0.00
2023-05-13T02:40:06.423Z,0.00
2023-05-13T02:41:06.421Z,4.00
2023-05-13T02:42:06.420Z,4.00
2023-05-13T02:43:06.426Z,0.00
2023-05-13T02:44:06.419Z,4.00
2023-05-13T02:45:06.420Z,4.00
2023-05-13T02:46:06.516Z,4.00
2023-05-13T02:47:06.421Z,4.00
2023-05-13T02:48:06.461Z,8.00
2023-05-13T02:49:06.428Z,8.00
2023-05-13T02:50:06.442Z,4.00
2023-05-13T02:51:06.425Z,8.00
2023-05-13T02:52:06.427Z,12.00
2023-05-13T02:53:06.419Z,12.00
2023-05-13T02:54:06.427Z,12.00
2023-05-13T02:55:06.472Z,16.00
2023-05-13T02:56:06.429Z,16.00
2023-05-13T02:57:06.426Z,16.00
2023-05-13T02:58:06.444Z,20.00
2023-05-13T02:59:06.426Z,24.00
2023-05-13T03:00:06.452Z,24.00
2023-05-13T03:01:06.516Z,32.00
2023-05-13T03:02:06.492Z,36.00
2023-05-13T03:03:06.526Z,36.00
2023-05-13T03:04:06.432Z,40.00
2023-05-13T03:05:06.432Z,48.00
2023-05-13T03:06:06.436Z,52.00
2023-05-13T03:07:06.428Z,56.00
2023-05-13T03:08:06.433Z,64.00
2023-05-13T03:09:06.426Z,68.00
2023-05-13T03:10:06.428Z,76.00
2023-05-13T03:11:06.437Z,84.00
2023-05-13T03:12:06.434Z,92.00
2023-05-13T03:13:06.429Z,100.00
2023-05-13T03:14:06.438Z,108.00
2023-05-13T03:15:07.840Z,120.00
2023-05-13T03:16:06.474Z,128.00
2023-05-13T03:17:06.432Z,140.00
2023-05-13T03:18:06.454Z,144.00
2023-05-13T03:19:06.515Z,156.00
2023-05-13T03:20:06.433Z,168.00
2023-05-13T03:21:06.432Z,176.00
2023-05-13T03:22:06.441Z,188.00
2023-05-13T03:23:06.432Z,196.00
2023-05-13T03:24:06.436Z,208.00
2023-05-13T03:25:06.438Z,224.00
2023-05-13T03:26:06.434Z,232.00
2023-05-13T03:27:06.438Z,244.00
2023-05-13T03:28:06.437Z,260.00
2023-05-13T03:29:06.441Z,272.00
2023-05-13T03:30:06.434Z,284.00
2023-05-13T03:31:06.479Z,300.00
2023-05-13T03:32:06.453Z,316.00
2023-05-13T03:33:06.446Z,340.00
2023-05-13T03:34:06.458Z,364.00
2023-05-13T03:35:06.467Z,400.00
2023-05-13T03:36:06.441Z,424.00
2023-05-13T03:37:06.464Z,452.00
2023-05-13T03:38:06.441Z,484.00
2023-05-13T03:39:06.439Z,512.00
2023-05-13T03:40:06.439Z,528.00
2023-05-13T03:41:06.431Z,532.00
2023-05-13T03:42:06.451Z,532.00
2023-05-13T03:43:06.432Z,540.00
2023-05-13T03:44:06.446Z,560.00
2023-05-13T03:45:06.434Z,588.00
2023-05-13T03:46:06.436Z,632.00
2023-05-13T03:47:06.472Z,656.00
2023-05-13T03:48:06.479Z,660.00
2023-05-13T03:49:06.435Z,652.00
2023-05-13T03:50:06.469Z,636.00
2023-05-13T03:51:06.441Z,644.00
2023-05-13T03:52:06.439Z,656.00
2023-05-13T03:53:06.431Z,676.00
2023-05-13T03:54:06.449Z,704.00
2023-05-13T03:55:06.464Z,736.00
2023-05-13T03:56:06.438Z,756.00
2023-05-13T03:57:06.438Z,768.00
2023-05-13T03:58:06.446Z,772.00
2023-05-13T03:59:06.446Z,784.00
2023-05-13T04:00:06.437Z,792.00
2023-05-13T04:01:06.438Z,808.00
2023-05-13T04:02:06.510Z,820.00
2023-05-13T04:03:06.462Z,836.00
2023-05-13T04:04:06.438Z,848.00
2023-05-13T04:05:06.454Z,868.00
2023-05-13T04:06:06.477Z,880.00
2023-05-13T04:07:06.442Z,892.00
2023-05-13T04:08:06.442Z,904.00
2023-05-13T04:09:06.441Z,920.00
2023-05-13T04:10:06.450Z,936.00
2023-05-13T04:11:06.446Z,956.00
2023-05-13T04:12:06.445Z,976.00
2023-05-13T04:13:06.445Z,996.00
2023-05-13T04:14:06.447Z,1020.00
2023-05-13T04:15:06.446Z,1044.00
2023-05-13T04:16:06.456Z,1060.00
2023-05-13T04:17:06.565Z,1084.00
2023-05-13T04:18:06.582Z,1100.00
2023-05-13T04:19:06.492Z,1120.00
2023-05-13T04:20:06.457Z,1140.00
2023-05-13T04:21:06.441Z,1160.00
2023-05-13T04:22:06.467Z,1192.00
2023-05-13T04:23:06.446Z,1224.00
2023-05-13T04:24:06.447Z,1264.00
2023-05-13T04:25:06.439Z,1288.00
2023-05-13T04:26:06.442Z,1328.00
2023-05-13T04:27:06.462Z,1360.00
2023-05-13T04:28:06.456Z,1372.00
2023-05-13T04:29:06.443Z,1376.00
2023-05-13T04:30:06.461Z,1384.00
2023-05-13T04:31:06.453Z,1408.00
2023-05-13T04:32:06.490Z,1452.00
2023-05-13T04:33:06.506Z,1468.00
2023-05-13T04:34:06.446Z,1460.00
2023-05-13T04:35:06.443Z,1456.00
2023-05-13T04:36:06.446Z,1468.00
2023-05-13T04:37:06.441Z,1468.00
2023-05-13T04:38:06.520Z,1476.00
2023-05-13T04:39:06.441Z,1484.00
2023-05-13T04:40:06.451Z,1508.00
2023-05-13T04:41:06.449Z,1572.00
2023-05-13T04:42:06.451Z,1628.00
2023-05-13T04:43:06.451Z,1660.00
2023-05-13T04:44:06.451Z,1656.00
2023-05-13T04:45:06.445Z,1600.00
2023-05-13T04:46:06.480Z,1572.00
2023-05-13T04:47:06.446Z,1568.00
2023-05-13T04:48:06.530Z,1576.00
2023-05-13T04:49:06.449Z,1584.00
2023-05-13T04:50:06.459Z,1592.00
2023-05-13T04:51:06.449Z,1604.00
2023-05-13T04:52:06.440Z,1616.00
2023-05-13T04:53:06.451Z,1624.00
2023-05-13T04:54:06.469Z,1632.00
2023-05-13T04:55:06.444Z,1644.00
2023-05-13T04:56:06.448Z,1652.00
2023-05-13T04:57:06.447Z,1664.00
2023-05-13T04:58:06.452Z,1672.00
2023-05-13T04:59:06.446Z,1684.00
2023-05-13T05:00:06.467Z,1692.00
2023-05-13T05:01:06.447Z,1700.00
2023-05-13T05:02:06.522Z,1712.00
2023-05-13T05:03:06.463Z,1720.00
2023-05-13T05:04:06.471Z,1732.00
2023-05-13T05:05:06.446Z,1744.00
2023-05-13T05:06:06.453Z,1752.00
2023-05-13T05:07:06.451Z,1760.00
2023-05-13T05:08:06.450Z,1772.00
2023-05-13T05:09:06.454Z,1788.00
2023-05-13T05:10:06.475Z,1800.00
2023-05-13T05:11:06.460Z,1812.00
2023-05-13T05:12:06.456Z,1816.00
2023-05-13T05:13:06.466Z,1828.00
2023-05-13T05:14:06.449Z,1836.00
2023-05-13T05:15:06.450Z,1852.00
2023-05-13T05:16:06.447Z,1864.00
2023-05-13T05:17:06.497Z,1872.00
2023-05-13T05:18:06.597Z,1880.00
2023-05-13T05:19:06.484Z,1888.00
2023-05-13T05:20:06.467Z,1896.00
2023-05-13T05:21:06.459Z,1908.00
2023-05-13T05:22:06.453Z,1916.00
2023-05-13T05:23:06.467Z,1920.00
2023-05-13T05:24:06.588Z,1932.00
2023-05-13T05:25:06.453Z,1940.00
2023-05-13T05:26:11.528Z,1948.00
2023-05-13T05:27:06.451Z,1952.00
2023-05-13T05:28:06.467Z,1968.00
2023-05-13T05:29:06.462Z,1976.00
2023-05-13T05:30:06.460Z,1988.00
2023-05-13T05:31:06.489Z,2004.00
2023-05-13T05:32:06.526Z,2016.00
2023-05-13T05:33:06.580Z,2032.00
2023-05-13T05:34:06.455Z,2048.00
2023-05-13T05:35:06.464Z,2064.00
2023-05-13T05:36:06.460Z,2076.00
2023-05-13T05:37:06.452Z,2096.00
2023-05-13T05:38:06.464Z,2112.00
2023-05-13T05:39:06.457Z,2124.00
2023-05-13T05:40:06.472Z,2140.00
2023-05-13T05:41:06.453Z,2160.00
2023-05-13T05:43:06.455Z,2188.00
2023-05-13T05:44:06.453Z,2200.00
2023-05-13T05:45:06.454Z,2212.00
2023-05-13T05:46:06.520Z,2228.00
2023-05-13T05:47:06.457Z,2244.00
2023-05-13T05:48:06.490Z,2260.00
2023-05-13T05:49:06.458Z,2280.00
2023-05-13T05:50:06.462Z,2292.00
2023-05-13T05:51:06.470Z,2308.00
2023-05-13T05:52:06.482Z,2328.00
2023-05-13T05:53:06.455Z,2344.00
2023-05-13T05:54:06.481Z,2356.00
2023-05-13T05:55:06.467Z,2372.00
2023-05-13T05:56:06.471Z,2384.00
2023-05-13T05:57:06.453Z,2404.00
2023-05-13T05:58:06.534Z,2420.00
2023-05-13T05:59:06.467Z,2436.00
2023-05-13T06:00:06.464Z,2448.00
2023-05-13T06:01:06.463Z,2472.00
2023-05-13T06:02:06.487Z,2488.00
2023-05-13T06:03:06.724Z,2508.00
2023-05-13T06:04:06.649Z,2520.00
2023-05-13T06:05:06.468Z,2532.00
2023-05-13T06:06:06.463Z,2548.00
2023-05-13T06:07:06.521Z,2468.00
2023-05-13T06:08:06.492Z,2484.00
2023-05-13T06:09:06.466Z,2492.00
2023-05-13T06:10:08.300Z,2508.00
2023-05-13T06:11:06.465Z,2524.00
2023-05-13T06:12:06.466Z,2532.00
2023-05-13T06:13:06.464Z,2548.00
2023-05-13T06:14:06.494Z,2568.00
2023-05-13T06:15:06.476Z,2584.00
2023-05-13T06:16:06.497Z,2600.00
2023-05-13T06:17:06.477Z,2620.00
2023-05-13T06:18:06.505Z,2636.00
2023-05-13T06:19:06.639Z,2652.00
2023-05-13T06:20:06.471Z,2668.00
2023-05-13T06:21:06.477Z,2684.00
2023-05-13T06:22:06.480Z,2704.00
2023-05-13T06:23:06.473Z,2720.00
2023-05-13T06:24:06.807Z,2740.00
2023-05-13T06:25:06.470Z,2756.00
2023-05-13T06:26:06.479Z,2772.00
2023-05-13T06:27:06.481Z,2788.00
2023-05-13T06:28:06.476Z,2800.00
2023-05-13T06:29:06.478Z,2816.00
2023-05-13T06:30:06.509Z,2832.00
2023-05-13T06:31:06.585Z,2844.00
2023-05-13T06:32:06.477Z,2856.00
2023-05-13T06:33:06.518Z,2872.00
2023-05-13T06:34:06.486Z,2888.00
2023-05-13T06:35:06.491Z,2904.00
2023-05-13T06:36:06.477Z,2912.00
2023-05-13T06:37:06.485Z,2920.00
2023-05-13T06:38:06.492Z,2944.00
2023-05-13T06:39:06.494Z,2964.00
2023-05-13T06:40:06.482Z,2968.00
2023-05-13T06:41:06.487Z,2992.00
2023-05-13T06:42:06.489Z,3012.00
2023-05-13T06:43:06.486Z,3024.00
2023-05-13T06:44:06.484Z,3044.00
2023-05-13T06:45:06.488Z,3048.00
2023-05-13T06:46:06.507Z,3072.00
2023-05-13T06:47:06.542Z,3092.00
2023-05-13T06:48:06.562Z,3120.00
2023-05-13T06:49:06.494Z,3140.00
2023-05-13T06:50:06.495Z,3160.00
2023-05-13T06:51:06.504Z,3160.00
2023-05-13T06:52:06.493Z,3196.00
2023-05-13T06:53:06.496Z,3224.00
2023-05-13T06:54:06.498Z,3240.00
2023-05-13T06:55:06.510Z,3252.00
2023-05-13T06:56:06.504Z,3272.00
2023-05-13T06:57:06.498Z,3304.00
2023-05-13T06:58:06.504Z,3332.00
2023-05-13T06:59:06.536Z,3348.00
2023-05-13T07:00:06.501Z,3368.00
2023-05-13T07:01:06.583Z,3384.00
2023-05-13T07:02:06.523Z,3400.00
2023-05-13T07:03:06.542Z,3424.00
2023-05-13T07:04:06.537Z,3440.00
2023-05-13T07:05:06.512Z,3452.00
2023-05-13T07:06:06.510Z,3468.00
2023-05-13T07:07:06.505Z,3484.00
2023-05-13T07:08:06.519Z,3508.00
2023-05-13T07:09:08.415Z,3520.00
2023-05-13T07:10:06.531Z,3544.00
2023-05-13T07:11:06.540Z,3564.00
2023-05-13T07:12:06.513Z,3588.00
2023-05-13T07:13:06.512Z,3616.00
2023-05-13T07:14:06.510Z,3648.00
2023-05-13T07:15:06.519Z,3672.00
2023-05-13T07:16:06.519Z,3708.00
2023-05-13T07:17:06.564Z,3744.00
2023-05-13T07:18:06.586Z,3764.00
2023-05-13T07:19:06.553Z,3792.00
2023-05-13T07:20:06.518Z,3832.00
2023-05-13T07:21:06.554Z,3856.00
2023-05-13T07:22:06.531Z,3888.00
2023-05-13T07:23:06.535Z,3924.00
2023-05-13T07:24:06.532Z,3972.00
2023-05-13T07:25:06.534Z,4012.00
2023-05-13T07:26:06.532Z,4044.00
2023-05-13T07:27:06.532Z,4080.00
2023-05-13T07:28:06.533Z,4136.00
2023-05-13T07:29:06.542Z,4208.00
2023-05-13T07:30:06.549Z,4284.00
2023-05-13T07:31:06.567Z,4360.00
2023-05-13T07:32:06.575Z,4412.00
2023-05-13T07:33:06.554Z,4468.00
2023-05-13T07:34:06.563Z,4508.00
2023-05-13T07:35:06.547Z,4576.00
2023-05-13T07:36:06.547Z,4640.00
2023-05-13T07:37:06.548Z,4708.00
2023-05-13T07:38:06.557Z,4852.00
2023-05-13T07:39:07.103Z,5152.00
2023-05-13T07:40:06.570Z,13028.00
2023-05-13T07:41:06.556Z,28480.00
2023-05-13T07:42:06.554Z,42528.00
2023-05-13T07:43:06.566Z,54176.00
2023-05-13T07:44:06.557Z,53248.00
2023-05-13T07:45:06.564Z,51008.00
2023-05-13T07:46:06.564Z,57536.00
2023-05-13T07:47:06.623Z,60864.00
2023-05-13T07:48:06.639Z,55840.00
2023-05-13T07:49:06.577Z,56992.00
2023-05-13T07:50:06.600Z,66688.00
2023-05-13T07:51:06.584Z,68768.00
2023-05-13T07:52:06.582Z,64192.00
2023-05-13T07:53:06.589Z,66464.00
2023-05-13T07:54:06.600Z,68224.00
2023-05-13T07:55:06.594Z,66464.00
2023-05-13T07:56:06.600Z,67552.00
2023-05-13T07:57:06.601Z,67872.00
2023-05-13T07:58:06.663Z,66112.00
2023-05-13T07:59:06.606Z,68128.00
2023-05-13T08:00:06.622Z,69696.00
2023-05-13T08:01:06.618Z,67392.00
2023-05-13T08:02:06.624Z,64832.00
2023-05-13T08:03:06.728Z,62816.00
2023-05-13T08:04:06.755Z,60832.00
2023-05-13T08:05:06.787Z,62048.00
2023-05-13T08:06:06.672Z,68416.00
2023-05-13T08:07:06.663Z,71744.00
2023-05-13T08:08:06.660Z,76064.00
2023-05-13T08:09:06.660Z,77856.00
2023-05-13T08:10:06.672Z,78112.00
2023-05-13T08:11:06.671Z,73568.00
2023-05-13T08:12:06.677Z,71712.00
2023-05-13T08:13:06.692Z,71168.00
2023-05-13T08:14:06.691Z,71904.00
2023-05-13T08:15:06.697Z,75488.00
2023-05-13T08:16:06.715Z,75360.00
2023-05-13T08:17:06.714Z,71168.00
2023-05-13T08:18:06.775Z,59488.00
2023-05-13T08:19:06.768Z,26656.00
2023-05-13T08:20:06.734Z,11700.00
2023-05-13T08:21:06.746Z,11344.00
2023-05-13T08:22:06.777Z,11340.00
2023-05-13T08:23:06.761Z,11380.00
2023-05-13T08:24:06.765Z,11452.00
2023-05-13T08:25:06.775Z,11604.00
2023-05-13T08:26:06.785Z,12088.00
2023-05-13T08:27:06.790Z,20480.00
2023-05-13T08:28:06.800Z,45312.00
2023-05-13T08:29:06.827Z,67488.00
2023-05-13T08:30:06.812Z,82784.00
2023-05-13T08:31:06.823Z,73632.00
2023-05-13T08:32:06.875Z,51232.00
2023-05-13T08:33:06.854Z,50400.00
2023-05-13T08:34:06.853Z,70848.00
2023-05-13T08:35:06.856Z,82208.00
2023-05-13T08:36:06.853Z,78496.00
2023-05-13T08:37:06.868Z,72640.00
2023-05-13T08:38:06.906Z,79744.00
2023-05-13T08:39:06.886Z,78560.00
2023-05-13T08:40:06.893Z,68000.00
2023-05-13T08:41:06.902Z,64320.00
2023-05-13T08:42:06.916Z,70528.00
2023-05-13T08:43:06.923Z,75264.00
2023-05-13T08:44:06.986Z,77184.00
2023-05-13T08:45:06.941Z,77248.00
2023-05-13T08:46:06.988Z,80096.00
2023-05-13T08:47:06.965Z,81248.00
2023-05-13T08:48:07.004Z,76896.00
2023-05-13T08:49:06.982Z,69376.00
2023-05-13T08:50:06.995Z,74240.00
2023-05-13T08:51:07.008Z,81408.00
2023-05-13T08:52:07.010Z,86592.00
2023-05-13T08:53:07.024Z,82400.00
2023-05-13T08:54:07.056Z,75552.00
2023-05-13T08:55:07.045Z,84480.00
2023-05-13T08:56:07.063Z,95904.00
2023-05-13T08:57:07.075Z,88320.00
2023-05-13T08:58:07.081Z,75872.00
2023-05-13T08:59:07.098Z,75360.00
2023-05-13T09:00:07.112Z,86400.00
2023-05-13T09:01:07.145Z,4192.00
2023-05-13T09:02:07.130Z,92864.00
2023-05-13T09:03:07.252Z,88416.00
2023-05-13T09:04:07.269Z,82784.00
2023-05-13T09:05:07.222Z,84320.00
2023-05-13T09:06:07.194Z,84096.00
2023-05-13T09:07:07.197Z,74720.00
2023-05-13T09:08:07.219Z,66496.00
2023-05-13T09:09:07.226Z,68352.00
2023-05-13T09:10:07.270Z,77792.00
2023-05-13T09:11:07.261Z,82016.00
2023-05-13T09:12:07.266Z,77120.00
2023-05-13T09:13:07.284Z,74848.00
2023-05-13T09:14:07.313Z,81696.00
2023-05-13T09:15:07.324Z,88960.00
2023-05-13T09:16:07.360Z,89248.00
2023-05-13T09:17:07.349Z,84192.00
2023-05-13T09:18:07.448Z,83360.00
2023-05-13T09:19:07.455Z,88160.00
2023-05-13T09:20:07.466Z,93280.00
2023-05-13T09:21:07.402Z,91968.00
2023-05-13T09:22:07.410Z,86112.00
2023-05-13T09:23:07.446Z,81856.00
2023-05-13T09:24:08.878Z,82112.00
2023-05-13T09:25:07.464Z,84800.00
2023-05-13T09:26:07.501Z,83456.00
2023-05-13T09:27:07.496Z,79456.00
2023-05-13T09:28:07.522Z,79392.00
2023-05-13T09:29:07.535Z,85088.00
2023-05-13T09:30:07.557Z,88320.00
2023-05-13T09:31:07.591Z,96096.00
2023-05-13T09:32:07.580Z,101248.00
2023-05-13T09:33:07.732Z,99072.00
2023-05-13T09:34:07.613Z,89632.00
2023-05-13T09:35:07.630Z,85760.00
2023-05-13T09:36:07.653Z,91520.00
2023-05-13T09:37:07.703Z,7040.00
2023-05-13T09:38:07.686Z,5292.00
2023-05-13T09:39:07.738Z,5420.00
2023-05-13T09:40:07.719Z,5868.00
2023-05-13T09:41:07.756Z,5784.00
2023-05-13T09:42:07.779Z,5460.00
2023-05-13T09:43:07.782Z,5572.00
2023-05-13T09:44:07.788Z,5692.00
2023-05-13T09:45:07.815Z,5632.00
2023-05-13T09:46:07.822Z,5912.00
2023-05-13T09:47:07.984Z,5492.00
2023-05-13T09:48:07.880Z,6544.00
2023-05-13T09:49:07.884Z,5656.00
2023-05-13T09:50:07.890Z,7112.00
2023-05-13T09:51:07.899Z,7156.00
2023-05-13T09:52:07.937Z,7168.00
2023-05-13T09:53:07.931Z,7152.00
2023-05-13T09:54:07.941Z,7144.00
2023-05-13T09:55:07.969Z,7188.00
2023-05-13T09:56:07.975Z,7240.00
2023-05-13T09:57:07.988Z,7312.00
2023-05-13T09:58:08.018Z,7364.00
2023-05-13T09:59:08.042Z,7452.00
2023-05-13T10:01:08.070Z,7868.00
2023-05-13T10:02:08.048Z,8040.00
2023-05-13T10:03:08.136Z,8232.00
2023-05-13T10:04:08.120Z,8212.00
2023-05-13T10:05:08.088Z,8172.00
2023-05-13T10:06:08.117Z,8100.00
2023-05-13T10:07:08.109Z,7872.00
2023-05-13T10:08:08.119Z,7924.00
2023-05-13T10:09:08.127Z,8116.00
2023-05-13T10:10:08.136Z,8320.00
2023-05-13T10:11:08.167Z,8276.00
2023-05-13T10:12:08.170Z,8288.00
2023-05-13T10:13:08.170Z,8404.00
2023-05-13T10:14:08.204Z,8392.00
2023-05-13T10:15:08.192Z,8572.00
2023-05-13T10:16:08.232Z,8780.00
2023-05-13T10:17:08.260Z,9164.00
2023-05-13T10:18:08.234Z,9980.00
2023-05-13T10:19:08.310Z,11444.00
2023-05-13T10:20:08.228Z,13984.00
2023-05-13T10:21:08.251Z,13572.00
2023-05-13T10:22:08.245Z,12860.00
2023-05-13T10:23:08.263Z,12024.00
2023-05-13T10:24:08.277Z,11236.00
2023-05-13T10:25:08.276Z,10432.00
2023-05-13T10:26:08.295Z,9740.00
2023-05-13T10:27:08.318Z,9308.00
2023-05-13T10:28:08.304Z,9256.00
2023-05-13T10:29:08.316Z,9764.00
2023-05-13T10:30:08.341Z,10836.00
2023-05-13T10:31:08.328Z,10616.00
2023-05-13T10:32:08.408Z,10904.00
2023-05-13T10:33:08.397Z,11884.00
2023-05-13T10:34:08.368Z,11904.00
2023-05-13T10:35:08.369Z,13620.00
2023-05-13T10:36:08.372Z,11560.00
2023-05-13T10:37:08.385Z,11024.00
2023-05-13T10:38:08.389Z,12788.00
2023-05-13T10:39:08.402Z,13280.00
2023-05-13T10:40:08.404Z,17216.00
2023-05-13T10:41:08.423Z,21856.00
2023-05-13T10:42:08.429Z,26624.00
2023-05-13T10:43:08.441Z,35104.00
2023-05-13T10:44:09.887Z,44704.00
2023-05-13T10:45:08.464Z,44672.00
2023-05-13T10:46:08.600Z,41152.00
2023-05-13T10:47:08.503Z,37344.00
2023-05-13T10:48:08.604Z,51584.00
2023-05-13T10:49:08.509Z,72128.00
2023-05-13T10:50:08.537Z,80768.00
2023-05-13T10:51:08.535Z,76992.00
2023-05-13T10:52:08.552Z,77248.00
2023-05-13T10:53:08.551Z,80000.00
2023-05-13T10:54:08.567Z,80256.00
2023-05-13T10:55:08.575Z,72352.00
2023-05-13T10:56:08.592Z,67936.00
2023-05-13T10:57:08.616Z,70976.00
2023-05-13T10:58:08.620Z,82176.00
2023-05-13T10:59:08.630Z,88928.00
2023-05-13T11:00:08.647Z,98592.00
2023-05-13T11:01:08.667Z,99680.00
2023-05-13T11:02:08.906Z,89344.00
2023-05-13T11:03:08.801Z,72960.00
2023-05-13T11:04:08.849Z,66400.00
2023-05-13T11:05:08.730Z,67072.00
2023-05-13T11:06:08.732Z,70592.00
2023-05-13T11:07:08.743Z,79360.00
2023-05-13T11:08:08.764Z,87680.00
2023-05-13T11:09:08.780Z,93120.00
2023-05-13T11:10:08.802Z,100448.00
2023-05-13T11:11:08.804Z,104320.00
2023-05-13T11:12:08.830Z,99168.00
2023-05-13T11:13:08.853Z,86912.00
2023-05-13T11:14:09.024Z,80256.00
2023-05-13T11:15:08.880Z,82848.00
2023-05-13T11:16:08.915Z,91872.00
2023-05-13T11:17:08.921Z,96768.00
2023-05-13T11:18:08.993Z,100576.00
2023-05-13T11:19:08.989Z,102432.00
2023-05-13T11:20:08.985Z,97184.00
2023-05-13T11:21:08.990Z,90784.00
2023-05-13T11:22:09.005Z,81952.00
2023-05-13T11:23:09.026Z,76864.00
2023-05-13T11:24:09.057Z,77728.00
2023-05-13T11:25:09.125Z,86816.00
2023-05-13T11:26:11.900Z,96992.00
2023-05-13T11:27:09.107Z,95136.00
2023-05-13T11:28:09.123Z,87904.00
2023-05-13T11:29:09.143Z,80352.00
2023-05-13T11:30:09.162Z,79488.00
2023-05-13T11:31:09.201Z,82016.00
2023-05-13T11:32:09.209Z,84512.00
2023-05-13T11:33:09.251Z,81728.00
2023-05-13T11:34:09.269Z,78336.00
2023-05-13T11:35:09.265Z,79840.00
2023-05-13T11:36:09.282Z,89792.00
2023-05-13T11:37:09.325Z,98688.00
2023-05-13T11:38:09.330Z,97984.00
2023-05-13T11:39:09.347Z,89408.00
2023-05-13T11:40:09.371Z,80224.00
2023-05-13T11:41:09.396Z,76896.00
2023-05-13T11:42:09.437Z,82592.00
2023-05-13T11:43:09.454Z,91904.00
2023-05-13T11:44:09.459Z,98400.00
2023-05-13T11:45:09.479Z,98944.00
2023-05-13T11:46:09.539Z,92864.00
2023-05-13T11:47:09.526Z,84704.00
2023-05-13T11:48:09.624Z,78976.00
2023-05-13T11:49:09.590Z,80736.00
2023-05-13T11:50:09.616Z,88096.00
2023-05-13T11:51:09.628Z,93728.00
2023-05-13T11:52:09.640Z,92000.00
2023-05-13T11:53:09.659Z,85664.00
2023-05-13T11:54:09.683Z,77888.00
2023-05-13T11:55:09.705Z,75680.00
2023-05-13T11:56:09.727Z,80544.00
2023-05-13T11:57:09.750Z,89728.00
2023-05-13T11:58:09.777Z,94368.00
2023-05-13T11:59:09.800Z,92768.00
2023-05-13T12:00:09.828Z,87200.00
2023-05-13T12:01:09.849Z,84256.00
2023-05-13T12:02:09.890Z,83840.00
2023-05-13T12:03:09.951Z,44064.00
2023-05-13T12:04:09.925Z,11784.00
2023-05-13T12:05:10.024Z,13716.00
2023-05-13T12:06:10.001Z,88768.00
2023-05-13T12:07:09.995Z,88000.00
2023-05-13T12:08:10.027Z,87488.00
2023-05-13T12:09:10.056Z,84384.00
2023-05-13T12:10:10.072Z,80736.00
2023-05-13T12:11:10.101Z,77632.00
2023-05-13T12:12:10.110Z,78208.00
2023-05-13T12:13:10.135Z,82144.00
2023-05-13T12:14:10.163Z,83264.00
2023-05-13T12:15:10.189Z,82368.00
2023-05-13T12:16:10.253Z,77760.00
2023-05-13T12:17:10.233Z,73792.00
2023-05-13T12:18:10.323Z,72672.00
2023-05-13T12:19:10.487Z,74944.00